createdAt,value
2019-02-25T00:01:57.569Z,0.94
2019-02-25T00:04:28.022Z,0.88
2019-02-25T00:06:58.451Z,0.81
2019-02-25T00:09:28.914Z,0.77
2019-02-25T00:11:59.275Z,0.75
2019-02-25T00:14:29.639Z,0.74
2019-02-25T00:16:59.984Z,0.70
2019-02-25T00:19:30.374Z,0.68
2019-02-25T00:22:00.813Z,0.63
2019-02-25T00:24:31.331Z,0.60
2019-02-25T00:27:01.768Z,0.59
2019-02-25T00:29:32.152Z,0.59
2019-02-25T00:32:02.521Z,0.59
2019-02-25T00:34:32.917Z,0.59
2019-02-25T00:37:03.267Z,0.58
2019-02-25T00:39:33.658Z,0.58
2019-02-25T00:42:04.017Z,0.62
2019-02-25T00:44:34.412Z,0.64
2019-02-25T00:47:04.817Z,0.65
2019-02-25T00:49:35.269Z,0.73
2019-02-25T00:52:05.633Z,0.73
2019-02-25T00:54:36.006Z,0.74
2019-02-25T00:57:06.358Z,0.76
2019-02-25T00:59:37.145Z,0.82
2019-02-25T01:02:07.782Z,0.75
2019-02-25T01:04:38.233Z,0.74
2019-02-25T01:07:08.764Z,0.67
2019-02-25T01:09:39.302Z,0.67
2019-02-25T01:12:10.134Z,0.61
2019-02-25T01:14:40.523Z,0.65
2019-02-25T01:17:10.862Z,0.63
2019-02-25T01:19:41.267Z,0.61
2019-02-25T01:22:11.628Z,0.59
2019-02-25T01:24:42.002Z,0.56
2019-02-25T01:27:12.338Z,0.51
2019-02-25T01:29:42.706Z,0.46
2019-02-25T01:32:13.136Z,0.42
2019-02-25T01:34:43.524Z,0.40
2019-02-25T01:37:13.949Z,0.37
2019-02-25T01:39:44.323Z,0.35
2019-02-25T01:42:16.440Z,0.39
2019-02-25T01:44:46.823Z,0.34
2019-02-25T01:47:17.184Z,0.26
2019-02-25T01:49:47.571Z,0.24
2019-02-25T01:52:17.915Z,0.21
2019-02-25T01:54:48.300Z,0.20
2019-02-25T01:57:18.635Z,0.17
2019-02-25T01:59:49.027Z,0.17
2019-02-25T02:02:19.385Z,0.20
2019-02-25T02:04:51.147Z,0.16
2019-02-25T02:07:23.157Z,0.19
2019-02-25T02:09:53.613Z,0.15
2019-02-25T02:12:23.970Z,0.17
2019-02-25T02:14:54.436Z,0.16
2019-02-25T02:17:24.800Z,0.22
2019-02-25T02:19:55.202Z,0.22
2019-02-25T02:22:25.626Z,0.25
2019-02-25T02:24:56.018Z,0.22
2019-02-25T02:27:26.355Z,0.27
2019-02-25T02:29:56.921Z,0.29
2019-02-25T02:32:27.275Z,0.24
2019-02-25T02:34:57.654Z,0.23
2019-02-25T02:37:28.004Z,0.21
2019-02-25T02:39:58.400Z,0.24
2019-02-25T02:42:28.834Z,0.24
2019-02-25T02:44:59.281Z,0.16
2019-02-25T02:47:45.334Z,0.17
2019-02-25T02:50:18.934Z,0.16
2019-02-25T02:52:49.282Z,0.21
2019-02-25T02:55:19.659Z,0.12
2019-02-25T02:57:50.023Z,0.08
2019-02-25T03:00:20.473Z,0.17
2019-02-25T03:02:50.901Z,0.35
2019-02-25T03:05:21.268Z,0.33
2019-02-25T03:07:51.620Z,0.39
2019-02-25T03:10:22.034Z,0.47
2019-02-25T03:12:52.381Z,0.51
2019-02-25T03:15:23.210Z,0.52
2019-02-25T03:17:53.570Z,0.48
2019-02-25T03:20:24.028Z,0.43
2019-02-25T03:22:54.460Z,0.35
2019-02-25T03:25:24.922Z,0.31
2019-02-25T03:27:55.269Z,0.27
2019-02-25T03:30:25.664Z,0.23
2019-02-25T03:32:56.023Z,0.22
2019-02-25T03:35:26.405Z,0.18
2019-02-25T03:37:56.768Z,0.27
2019-02-25T03:40:27.229Z,0.26
2019-02-25T03:42:57.588Z,0.34
2019-02-25T03:45:27.972Z,0.33
2019-02-25T03:47:58.390Z,0.34
2019-02-25T03:50:28.786Z,0.29
2019-02-25T03:52:59.142Z,0.23
2019-02-25T03:55:29.601Z,0.20
2019-02-25T03:57:59.947Z,0.15
2019-02-25T04:00:30.397Z,0.18
2019-02-25T04:03:00.832Z,0.14
2019-02-25T04:05:31.317Z,0.14
2019-02-25T04:08:01.739Z,0.17
2019-02-25T04:10:32.133Z,0.16
2019-02-25T04:13:02.482Z,0.12
2019-02-25T04:15:37.573Z,0.11
2019-02-25T04:18:07.993Z,0.07
2019-02-25T04:20:38.387Z,0.04
2019-02-25T04:23:08.791Z,0.02
2019-02-25T04:25:39.197Z,0.00
2019-02-25T04:28:09.571Z,-0.05
2019-02-25T04:30:40.043Z,-0.12
2019-02-25T04:33:10.403Z,-0.22
2019-02-25T04:35:40.773Z,-0.29
2019-02-25T04:38:11.162Z,-0.30
2019-02-25T04:40:42.527Z,-0.33
2019-02-25T04:43:12.881Z,-0.31
2019-02-25T04:45:43.279Z,-0.32
2019-02-25T04:48:13.645Z,-0.32
2019-02-25T04:50:44.032Z,-0.33
2019-02-25T04:53:14.397Z,-0.35
2019-02-25T04:55:44.784Z,-0.34
2019-02-25T04:58:15.136Z,-0.33
2019-02-25T05:00:45.660Z,-0.30
2019-02-25T05:03:16.073Z,-0.30
2019-02-25T05:05:46.482Z,-0.33
2019-02-25T05:08:16.910Z,-0.29
2019-02-25T05:10:47.289Z,-0.25
2019-02-25T05:13:17.724Z,-0.24
2019-02-25T05:15:48.116Z,-0.20
2019-02-25T05:18:18.481Z,-0.21
2019-02-25T05:20:48.928Z,-0.21
2019-02-25T05:23:19.297Z,-0.19
2019-02-25T05:25:49.676Z,-0.19
2019-02-25T05:28:20.037Z,-0.25
2019-02-25T05:30:50.863Z,-0.31
2019-02-25T05:33:21.258Z,-0.34
2019-02-25T05:35:51.641Z,-0.39
2019-02-25T05:38:22.006Z,-0.42
2019-02-25T05:40:52.408Z,-0.38
2019-02-25T05:43:23.838Z,-0.30
2019-02-25T05:45:54.217Z,-0.23
2019-02-25T05:48:24.590Z,-0.25
2019-02-25T05:50:54.970Z,-0.28
2019-02-25T05:53:25.396Z,-0.30
2019-02-25T05:55:55.857Z,-0.29
2019-02-25T05:58:26.207Z,-0.26
2019-02-25T06:00:56.664Z,-0.28
2019-02-25T06:03:27.836Z,-0.24
2019-02-25T06:05:59.234Z,-0.26
2019-02-25T06:08:29.607Z,-0.21
2019-02-25T06:10:59.989Z,-0.21
2019-02-25T06:13:30.432Z,-0.18
2019-02-25T06:16:00.893Z,-0.17
2019-02-25T06:18:31.324Z,-0.17
2019-02-25T06:21:01.719Z,-0.15
2019-02-25T06:23:32.220Z,-0.12
2019-02-25T06:26:02.615Z,-0.10
2019-02-25T06:28:32.983Z,-0.03
2019-02-25T06:31:03.372Z,0.06
2019-02-25T06:33:33.798Z,0.10
2019-02-25T06:36:04.180Z,0.14
2019-02-25T06:38:34.536Z,0.19
2019-02-25T06:41:04.935Z,0.26
2019-02-25T06:43:35.365Z,0.36
2019-02-25T06:46:05.743Z,0.46
2019-02-25T06:48:36.142Z,0.54
2019-02-25T06:51:06.521Z,0.69
2019-02-25T06:53:36.880Z,0.84
2019-02-25T06:56:07.263Z,0.96
2019-02-25T06:58:37.613Z,1.07
2019-02-25T07:01:07.993Z,1.18
2019-02-25T07:03:38.421Z,1.27
2019-02-25T07:06:10.447Z,1.34
2019-02-25T07:09:00.524Z,1.41
2019-02-25T07:11:34.143Z,1.52
2019-02-25T07:14:08.813Z,1.59
2019-02-25T07:16:47.077Z,1.67
2019-02-25T07:19:19.139Z,1.74
2019-02-25T07:21:51.164Z,1.81
2019-02-25T07:24:29.109Z,1.90
2019-02-25T07:27:01.126Z,2.00
2019-02-25T07:29:36.038Z,2.08
2019-02-25T07:32:08.056Z,2.18
2019-02-25T07:34:46.143Z,2.34
2019-02-25T07:37:23.960Z,2.46
2019-02-25T07:39:55.950Z,2.66
2019-02-25T07:42:27.971Z,2.75
2019-02-25T07:44:59.978Z,2.86
2019-02-25T07:47:32.018Z,3.00
2019-02-25T07:50:09.940Z,3.09
2019-02-25T07:52:44.932Z,3.17
2019-02-25T07:55:25.878Z,3.26
2019-02-25T07:58:13.862Z,3.33
2019-02-25T08:01:00.973Z,3.36
2019-02-25T08:03:33.328Z,3.44
2019-02-25T08:06:07.755Z,3.47
2019-02-25T08:09:00.133Z,3.51
2019-02-25T08:11:34.742Z,3.52
2019-02-25T08:14:15.354Z,3.50
2019-02-25T08:16:53.252Z,3.52
2019-02-25T08:19:26.463Z,3.51
2019-02-25T08:22:10.360Z,3.54
2019-02-25T08:24:48.067Z,3.54
2019-02-25T08:27:21.115Z,3.53
2019-02-25T08:29:59.222Z,3.57
2019-02-25T08:32:47.411Z,3.61
2019-02-25T08:35:56.236Z,3.66
2019-02-25T08:38:31.203Z,3.77
2019-02-25T08:41:09.050Z,3.92
2019-02-25T08:43:41.105Z,4.01
2019-02-25T08:46:13.226Z,4.14
2019-02-25T08:48:45.194Z,4.31
2019-02-25T08:51:15.598Z,4.46
2019-02-25T08:53:46.281Z,4.58
2019-02-25T08:56:16.732Z,4.68
2019-02-25T08:58:47.075Z,4.77
2019-02-25T09:01:17.521Z,4.88
2019-02-25T09:03:47.931Z,5.02
2019-02-25T09:06:18.385Z,5.12
2019-02-25T09:08:48.732Z,5.23
2019-02-25T09:11:19.192Z,5.27
2019-02-25T09:13:49.605Z,5.39
2019-02-25T09:16:20.050Z,5.48
2019-02-25T09:18:50.459Z,5.56
2019-02-25T09:21:20.860Z,5.63
2019-02-25T09:23:51.201Z,5.74
2019-02-25T09:26:21.592Z,5.86
2019-02-25T09:28:52.959Z,5.98
2019-02-25T09:31:23.336Z,6.02
2019-02-25T09:33:53.806Z,6.10
2019-02-25T09:36:25.674Z,6.19
2019-02-25T09:38:56.831Z,6.39
2019-02-25T09:41:30.170Z,6.35
2019-02-25T09:43:59.705Z,6.58
2019-02-25T09:46:30.087Z,6.73
2019-02-25T09:49:00.422Z,6.68
2019-02-25T09:51:30.813Z,6.76
2019-02-25T09:54:01.148Z,6.77
2019-02-25T09:56:31.592Z,6.80
2019-02-25T09:59:01.931Z,6.78
2019-02-25T10:01:32.469Z,6.78
2019-02-25T10:04:02.808Z,6.91
2019-02-25T10:06:33.190Z,7.01
2019-02-25T10:09:04.140Z,7.11
2019-02-25T10:11:34.989Z,7.24
2019-02-25T10:14:05.603Z,7.32
2019-02-25T10:16:36.050Z,7.45
2019-02-25T10:19:06.391Z,7.63
2019-02-25T10:21:36.827Z,7.83
2019-02-25T10:24:07.239Z,7.89
2019-02-25T10:26:37.635Z,8.06
2019-02-25T10:29:07.968Z,8.27
2019-02-25T10:31:39.740Z,8.38
2019-02-25T10:34:10.542Z,8.57
2019-02-25T10:36:41.025Z,8.67
2019-02-25T10:39:13.125Z,8.78
2019-02-25T10:41:43.872Z,8.84
2019-02-25T10:44:14.292Z,8.89
2019-02-25T10:46:45.263Z,9.02
2019-02-25T10:49:16.783Z,9.02
2019-02-25T10:51:47.312Z,9.10
2019-02-25T10:54:20.766Z,9.18
2019-02-25T10:56:51.579Z,9.40
2019-02-25T10:59:23.001Z,9.52
2019-02-25T11:01:53.458Z,9.57
2019-02-25T11:04:26.089Z,9.68
2019-02-25T11:06:56.387Z,10.00
2019-02-25T11:09:37.648Z,10.30
2019-02-25T11:12:08.605Z,10.34
2019-02-25T11:14:41.002Z,10.53
2019-02-25T11:17:11.257Z,10.46
2019-02-25T11:19:41.615Z,10.39
2019-02-25T11:22:14.026Z,10.40
2019-02-25T11:24:44.165Z,10.31
2019-02-25T11:27:14.557Z,10.21
2019-02-25T11:29:46.224Z,10.19
2019-02-25T11:32:18.905Z,10.23
2019-02-25T11:34:49.178Z,10.25
2019-02-25T11:37:22.461Z,10.20
2019-02-25T11:39:52.605Z,10.34
2019-02-25T11:42:24.150Z,10.45
2019-02-25T11:44:56.497Z,10.53
2019-02-25T11:47:26.633Z,10.66
2019-02-25T11:49:57.343Z,10.69
2019-02-25T11:52:27.728Z,10.93
2019-02-25T11:54:58.195Z,11.01
2019-02-25T11:57:28.660Z,11.14
2019-02-25T11:59:59.006Z,11.18
2019-02-25T12:02:29.562Z,11.37
2019-02-25T12:04:59.891Z,11.50
2019-02-25T12:07:30.272Z,11.63
2019-02-25T12:10:00.609Z,11.92
2019-02-25T12:12:30.985Z,12.10
2019-02-25T12:15:01.330Z,12.09
2019-02-25T12:17:32.896Z,13.03
2019-02-25T12:20:03.385Z,13.84
2019-02-25T12:22:33.758Z,15.82
2019-02-25T12:25:06.506Z,15.80
2019-02-25T12:27:36.951Z,14.88
2019-02-25T12:30:13.381Z,14.55
2019-02-25T12:32:43.840Z,14.90
2019-02-25T12:35:14.181Z,15.26
2019-02-25T12:37:44.648Z,16.41
2019-02-25T12:40:16.503Z,15.97
2019-02-25T12:42:47.167Z,13.94
2019-02-25T12:45:17.578Z,14.85
2019-02-25T12:47:48.036Z,15.38
2019-02-25T12:50:19.328Z,15.07
2019-02-25T12:52:49.789Z,15.40
2019-02-25T12:55:20.590Z,15.29
2019-02-25T12:57:50.983Z,15.90
2019-02-25T13:00:23.593Z,16.78
2019-02-25T13:02:54.249Z,17.29
2019-02-25T13:05:25.626Z,18.10
2019-02-25T13:07:56.008Z,17.20
2019-02-25T13:10:26.340Z,17.86
2019-02-25T13:12:56.723Z,18.37
2019-02-25T13:15:27.078Z,17.09
2019-02-25T13:17:57.464Z,17.00
2019-02-25T13:20:27.801Z,16.34
2019-02-25T13:22:58.257Z,15.52
2019-02-25T13:25:32.455Z,14.31
2019-02-25T13:28:04.220Z,13.73
2019-02-25T13:30:34.753Z,13.65
2019-02-25T13:33:05.163Z,14.84
2019-02-25T13:35:35.483Z,15.14
2019-02-25T13:38:05.873Z,14.99
2019-02-25T13:40:36.400Z,15.94
2019-02-25T13:43:07.074Z,17.48
2019-02-25T13:45:37.415Z,17.09
2019-02-25T13:48:07.865Z,16.16
2019-02-25T13:50:38.355Z,14.13
2019-02-25T13:53:08.828Z,13.76
2019-02-25T13:55:39.735Z,13.18
2019-02-25T13:58:10.120Z,12.96
2019-02-25T14:00:40.463Z,12.96
2019-02-25T14:03:10.860Z,12.86
2019-02-25T14:05:41.208Z,12.81
2019-02-25T14:08:11.587Z,12.76
2019-02-25T14:10:41.936Z,12.75
2019-02-25T14:13:12.395Z,12.71
2019-02-25T14:15:42.731Z,12.75
2019-02-25T14:18:13.188Z,12.97
2019-02-25T14:20:43.587Z,12.95
2019-02-25T14:23:16.073Z,12.81
2019-02-25T14:25:46.084Z,12.93
2019-02-25T14:28:16.462Z,13.05
2019-02-25T14:30:46.905Z,13.02
2019-02-25T14:33:17.295Z,12.96
2019-02-25T14:35:47.630Z,13.28
2019-02-25T14:38:20.406Z,13.27
2019-02-25T14:40:51.897Z,13.55
2019-02-25T14:43:24.952Z,14.25
2019-02-25T14:45:56.799Z,14.35
2019-02-25T14:48:27.931Z,13.78
2019-02-25T14:50:59.313Z,13.72
2019-02-25T14:53:29.763Z,13.76
2019-02-25T14:56:03.866Z,13.85
2019-02-25T14:58:35.566Z,13.83
2019-02-25T15:01:05.261Z,13.70
2019-02-25T15:03:35.707Z,13.62
2019-02-25T15:06:06.059Z,13.50
2019-02-25T15:08:36.500Z,13.23
2019-02-25T15:11:08.686Z,12.94
2019-02-25T15:13:39.204Z,12.68
2019-02-25T15:16:12.205Z,12.43
2019-02-25T15:18:42.578Z,12.28
2019-02-25T15:21:15.689Z,12.10
2019-02-25T15:23:45.155Z,11.96
2019-02-25T15:26:17.242Z,11.87
2019-02-25T15:28:47.612Z,11.77
2019-02-25T15:31:18.033Z,11.64
2019-02-25T15:33:48.425Z,11.55
2019-02-25T15:36:20.482Z,11.52
2019-02-25T15:38:51.334Z,11.43
2019-02-25T15:41:21.803Z,11.28
2019-02-25T15:43:52.546Z,11.15
2019-02-25T15:46:24.191Z,11.04
2019-02-25T15:48:55.184Z,10.88
2019-02-25T15:51:25.755Z,10.72
2019-02-25T15:53:57.712Z,10.55
2019-02-25T15:56:30.120Z,10.35
2019-02-25T15:59:00.528Z,10.23
2019-02-25T16:01:31.034Z,10.07
2019-02-25T16:04:04.294Z,9.90
2019-02-25T16:06:38.124Z,9.82
2019-02-25T16:09:09.854Z,9.80
2019-02-25T16:11:43.461Z,9.60
2019-02-25T16:14:14.117Z,9.41
2019-02-25T16:16:45.438Z,9.27
2019-02-25T16:19:16.949Z,9.24
2019-02-25T16:21:47.705Z,9.11
2019-02-25T16:24:18.790Z,9.04
2019-02-25T16:26:50.439Z,8.86
2019-02-25T16:29:55.979Z,8.73
2019-02-25T16:32:42.201Z,8.74
2019-02-25T16:35:17.289Z,8.67
2019-02-25T16:37:50.371Z,8.52
2019-02-25T16:40:24.469Z,8.36
2019-02-25T16:42:55.026Z,8.14
2019-02-25T16:45:28.522Z,8.17
2019-02-25T16:47:58.665Z,8.18
2019-02-25T16:50:29.375Z,8.22
2019-02-25T16:53:03.750Z,8.16
2019-02-25T16:55:32.344Z,8.18
2019-02-25T16:58:03.721Z,8.05
2019-02-25T17:00:37.058Z,7.96
2019-02-25T17:03:08.214Z,7.90
2019-02-25T17:05:40.269Z,7.83
2019-02-25T17:08:12.914Z,7.83
2019-02-25T17:10:43.367Z,7.78
2019-02-25T17:13:14.901Z,7.62
2019-02-25T17:15:46.809Z,7.77
2019-02-25T17:18:18.427Z,7.92
2019-02-25T17:20:50.321Z,7.99
2019-02-25T17:23:22.887Z,8.05
2019-02-25T17:25:53.266Z,7.98
2019-02-25T17:28:25.765Z,7.98
2019-02-25T17:30:57.068Z,8.15
2019-02-25T17:33:30.341Z,8.19
2019-02-25T17:36:00.707Z,8.28
2019-02-25T17:38:31.134Z,8.34
2019-02-25T17:41:04.034Z,8.31
2019-02-25T17:43:36.356Z,8.22
2019-02-25T17:46:07.440Z,8.23
2019-02-25T17:48:38.885Z,8.30
2019-02-25T17:51:09.357Z,8.19
2019-02-25T17:53:39.714Z,8.22
2019-02-25T17:56:10.188Z,8.16
2019-02-25T17:58:42.400Z,7.98
2019-02-25T18:01:31.164Z,7.90
2019-02-25T18:04:02.678Z,7.87
2019-02-25T18:06:34.409Z,7.91
2019-02-25T18:09:08.053Z,7.83
2019-02-25T18:11:41.219Z,7.88
2019-02-25T18:14:13.313Z,7.69
2019-02-25T18:16:46.678Z,7.67
2019-02-25T18:19:18.609Z,7.54
2019-02-25T18:21:49.152Z,7.36
2019-02-25T18:24:19.510Z,7.34
2019-02-25T18:26:50.028Z,7.43
2019-02-25T18:29:21.245Z,7.41
2019-02-25T18:31:53.042Z,7.62
2019-02-25T18:34:23.585Z,7.53
2019-02-25T18:36:55.489Z,7.69
2019-02-25T18:39:27.478Z,7.47
2019-02-25T18:41:58.306Z,7.51
2019-02-25T18:44:30.206Z,7.56
2019-02-25T18:47:00.616Z,7.60
2019-02-25T18:49:32.752Z,7.49
2019-02-25T18:52:03.274Z,7.48
2019-02-25T18:54:33.776Z,7.45
2019-02-25T18:57:05.539Z,7.42
2019-02-25T18:59:36.501Z,7.37
2019-02-25T19:02:07.975Z,7.25
2019-02-25T19:04:41.153Z,7.04
2019-02-25T19:07:11.172Z,7.13
2019-02-25T19:09:43.044Z,7.10
2019-02-25T19:12:15.271Z,7.16
2019-02-25T19:14:45.612Z,7.17
2019-02-25T19:17:16.019Z,7.12
2019-02-25T19:19:47.280Z,7.19
2019-02-25T19:22:19.538Z,7.11
2019-02-25T19:24:50.870Z,7.19
2019-02-25T19:27:22.300Z,7.20
2019-02-25T19:29:54.177Z,7.03
2019-02-25T19:32:24.803Z,6.98
2019-02-25T19:34:56.230Z,7.01
2019-02-25T19:37:31.149Z,6.97
2019-02-25T19:39:59.769Z,7.01
2019-02-25T19:42:31.300Z,7.06
2019-02-25T19:45:05.739Z,6.94
2019-02-25T19:47:35.235Z,6.91
2019-02-25T19:50:11.517Z,6.92
2019-02-25T19:52:44.139Z,7.04
2019-02-25T19:55:15.789Z,7.21
2019-02-25T19:57:47.380Z,7.15
2019-02-25T20:00:25.728Z,7.21
2019-02-25T20:03:05.547Z,7.23
2019-02-25T20:05:33.320Z,7.16
2019-02-25T20:08:04.058Z,7.09
2019-02-25T20:10:34.887Z,7.12
2019-02-25T20:13:08.361Z,7.15
2019-02-25T20:15:39.960Z,7.11
2019-02-25T20:18:11.634Z,7.10
2019-02-25T20:20:43.501Z,7.05
2019-02-25T20:23:13.924Z,7.09
2019-02-25T20:25:46.480Z,7.35
2019-02-25T20:28:18.628Z,7.21
2019-02-25T20:30:51.488Z,7.17
2019-02-25T20:33:25.683Z,7.13
2019-02-25T20:35:56.021Z,7.19
2019-02-25T20:38:27.122Z,7.19
2019-02-25T20:40:59.988Z,7.10
2019-02-25T20:43:32.380Z,7.11
2019-02-25T20:46:04.034Z,7.28
2019-02-25T20:48:34.841Z,7.24
2019-02-25T20:51:07.214Z,7.30
2019-02-25T20:53:37.913Z,7.40
2019-02-25T20:56:08.426Z,7.36
2019-02-25T20:58:43.041Z,7.41
2019-02-25T21:01:16.082Z,7.54
2019-02-25T21:03:48.590Z,7.56
2019-02-25T21:06:20.720Z,7.59
2019-02-25T21:08:50.923Z,7.61
2019-02-25T21:11:21.444Z,7.65
2019-02-25T21:13:51.937Z,7.63
2019-02-25T21:16:24.033Z,7.66
2019-02-25T21:18:55.030Z,7.76
2019-02-25T21:21:27.989Z,7.83
2019-02-25T21:24:01.307Z,7.87
2019-02-25T21:26:31.637Z,7.82
2019-02-25T21:29:04.275Z,7.91
2019-02-25T21:31:34.645Z,7.93
2019-02-25T21:34:05.111Z,7.86
2019-02-25T21:36:35.929Z,7.98
2019-02-25T21:39:10.050Z,8.04
2019-02-25T21:41:43.627Z,8.00
2019-02-25T21:44:16.652Z,8.11
2019-02-25T21:46:49.562Z,8.10
2019-02-25T21:49:20.274Z,8.08
2019-02-25T21:51:50.200Z,8.04
2019-02-25T21:54:20.609Z,8.07
2019-02-25T21:56:51.053Z,8.14
2019-02-25T21:59:21.380Z,8.14
2019-02-25T22:01:53.688Z,8.16
2019-02-25T22:04:24.938Z,8.22
2019-02-25T22:06:57.998Z,8.22
2019-02-25T22:09:36.514Z,8.22
2019-02-25T22:12:00.417Z,8.22
2019-02-25T22:14:30.839Z,8.20
2019-02-25T22:17:01.285Z,8.30
2019-02-25T22:19:32.520Z,8.30
2019-02-25T22:22:04.950Z,8.25
2019-02-25T22:24:36.656Z,8.35
2019-02-25T22:27:08.963Z,8.40
2019-02-25T22:29:41.279Z,8.30
2019-02-25T22:32:11.559Z,8.37
2019-02-25T22:34:41.913Z,8.41
2019-02-25T22:37:16.420Z,8.34
2019-02-25T22:39:46.165Z,8.30
2019-02-25T22:42:16.626Z,8.46
2019-02-25T22:44:47.943Z,8.46
2019-02-25T22:47:21.330Z,8.45
2019-02-25T22:49:52.837Z,8.45
2019-02-25T22:52:26.292Z,8.40
2019-02-25T22:54:55.413Z,8.43
2019-02-25T22:57:27.973Z,8.42
2019-02-25T22:59:57.992Z,8.44
2019-02-25T23:02:28.746Z,8.40
2019-02-25T23:04:59.236Z,8.43
2019-02-25T23:07:29.757Z,8.52
2019-02-25T23:10:00.267Z,8.49
2019-02-25T23:12:31.117Z,8.41
2019-02-25T23:15:03.854Z,8.48
2019-02-25T23:17:37.134Z,8.43
2019-02-25T23:20:09.552Z,8.41
2019-02-25T23:22:40.175Z,8.46
2019-02-25T23:25:11.542Z,8.46
2019-02-25T23:27:42.005Z,8.48
2019-02-25T23:30:15.812Z,8.45
2019-02-25T23:32:46.331Z,8.47
2019-02-25T23:35:18.391Z,8.50
2019-02-25T23:37:49.634Z,8.44
2019-02-25T23:40:21.118Z,8.41
2019-02-25T23:42:51.577Z,8.42
2019-02-25T23:45:23.166Z,8.40
2019-02-25T23:47:57.663Z,8.39
2019-02-25T23:50:29.207Z,8.45
2019-02-25T23:52:59.258Z,8.43
2019-02-25T23:55:29.749Z,8.39
2019-02-25T23:58:00.228Z,8.40
